Time;durP1;ratioP1;P1;durP2;ratioP2;P2;SDS_P1;SDS_P2;PMS_P1;PMS_P2;Temp;Humidity;BMP_temperature;BMP_pressure;BME280_temperature;BME280_humidity;BME280_pressure;Samples;Min_cycle;Max_cycle;Signal;HPM_P1;HPM_P2
2023/07/31 00:00:05;;;;;;;2.00;1.23;;;;;;;;;;5068902;28;20028;-84
2023/07/31 00:02:31;;;;;;;2.50;1.33;;;;;;;;;;5068804;28;20070;-83
2023/07/31 00:04:56;;;;;;;2.13;1.48;;;;;;;;;;5064226;28;20021;-83
2023/07/31 00:07:22;;;;;;;1.15;0.88;;;;;;;;;;5065199;28;20540;-86
2023/07/31 00:09:47;;;;;;;1.10;0.95;;;;;;;;;;5069684;28;20488;-84
2023/07/31 00:12:13;;;;;;;1.23;0.90;;;;;;;;;;5067534;28;20028;-86
2023/07/31 00:14:38;;;;;;;2.17;1.33;;;;;;;;;;5067055;28;20634;-84
2023/07/31 00:17:04;;;;;;;1.35;0.85;;;;;;;;;;5069207;28;20057;-84
2023/07/31 00:19:30;;;;;;;2.35;0.95;;;;;;;;;;5067744;28;20480;-85
2023/07/31 00:21:55;;;;;;;1.65;1.10;;;;;;;;;;5066086;28;20101;-85
2023/07/31 00:24:21;;;;;;;1.45;1.02;;;;;;;;;;5068051;28;20046;-86
2023/07/31 00:26:47;;;;;;;2.70;1.27;;;;;;;;;;5070131;28;20031;-88
2023/07/31 00:29:12;;;;;;;0.77;0.77;;;;;;;;;;5062837;28;20029;-83
2023/07/31 00:31:38;;;;;;;2.78;1.20;;;;;;;;;;5071805;28;20472;-86
2023/07/31 00:34:03;;;;;;;1.05;0.82;;;;;;;;;;5070993;28;20036;-84
2023/07/31 00:36:32;;;;;;;1.00;0.90;;;;;;;;;;5067015;28;20020;-85
2023/07/31 00:38:57;;;;;;;0.82;0.55;;;;;;;;;;5068549;28;20021;-86
2023/07/31 00:41:23;;;;;;;0.88;0.82;;;;;;;;;;5067395;28;20481;-85
2023/07/31 00:43:49;;;;;;;1.88;1.20;;;;;;;;;;5070463;28;20031;-84
2023/07/31 00:46:14;;;;;;;2.65;1.33;;;;;;;;;;5067269;28;20048;-85
2023/07/31 00:48:40;;;;;;;1.20;0.95;;;;;;;;;;5066018;28;20032;-85
2023/07/31 00:51:07;;;;;;;1.10;1.00;;;;;;;;;;5066319;28;20029;-85
2023/07/31 00:53:33;;;;;;;1.48;1.05;;;;;;;;;;5065748;28;20531;-84
2023/07/31 00:55:59;;;;;;;1.25;0.60;;;;;;;;;;5066551;28;20028;-83
2023/07/31 00:58:24;;;;;;;0.75;0.75;;;;;;;;;;5061992;28;20032;-83
2023/07/31 01:00:50;;;;;;;0.65;0.55;;;;;;;;;;5066113;28;20034;-85
2023/07/31 01:03:25;;;;;;;0.68;0.68;;;;;;;;;;5067600;28;20020;-85
2023/07/31 01:06:47;;;;;;;1.52;1.20;;;;;;;;;;5067084;28;20115;-85
2023/07/31 01:09:55;;;;;;;1.35;0.80;;;;;;;;;;5029588;28;20037;-84
2023/07/31 01:12:22;;;;;;;0.60;0.60;;;;;;;;;;5028666;28;20041;-85
2023/07/31 01:15:00;;;;;;;2.53;0.93;;;;;;;;;;5067844;28;20036;-87
2023/07/31 01:17:26;;;;;;;1.38;0.95;;;;;;;;;;5070658;28;20045;-86
2023/07/31 01:19:53;;;;;;;2.38;1.38;;;;;;;;;;5068997;28;20024;-86
2023/07/31 01:22:29;;;;;;;1.00;0.80;;;;;;;;;;5071034;28;20029;-85
2023/07/31 01:25:06;;;;;;;1.25;0.93;;;;;;;;;;5069717;28;20362;-85
2023/07/31 01:27:39;;;;;;;1.33;1.02;;;;;;;;;;5075268;28;20024;-85
2023/07/31 01:30:12;;;;;;;1.17;0.88;;;;;;;;;;5076587;28;20601;-84
2023/07/31 01:32:40;;;;;;;2.03;1.02;;;;;;;;;;5076353;28;20024;-85
2023/07/31 01:35:07;;;;;;;1.63;1.10;;;;;;;;;;5073998;28;20033;-85
2023/07/31 01:37:33;;;;;;;1.10;0.90;;;;;;;;;;5075271;28;20016;-85
2023/07/31 01:39:58;;;;;;;1.55;1.33;;;;;;;;;;5076664;28;20411;-86
2023/07/31 01:42:24;;;;;;;2.33;1.02;;;;;;;;;;5076026;28;20070;-85
2023/07/31 01:44:49;;;;;;;1.63;1.00;;;;;;;;;;5074287;28;20024;-85
2023/07/31 01:47:14;;;;;;;0.57;0.57;;;;;;;;;;5073789;28;20082;-85
2023/07/31 01:49:40;;;;;;;1.10;0.90;;;;;;;;;;5074541;28;20028;-83
2023/07/31 01:52:08;;;;;;;2.05;1.45;;;;;;;;;;5075951;28;20020;-83
2023/07/31 01:54:33;;;;;;;2.25;1.98;;;;;;;;;;5075225;28;20016;-83
2023/07/31 01:56:59;;;;;;;4.03;2.95;;;;;;;;;;5076793;28;20030;-84
2023/07/31 01:59:24;;;;;;;6.90;3.35;;;;;;;;;;5073567;28;20021;-84
2023/07/31 02:01:50;;;;;;;9.38;4.70;;;;;;;;;;5072878;28;20411;-84
2023/07/31 02:04:15;;;;;;;6.72;3.85;;;;;;;;;;5073035;28;20032;-87
2023/07/31 02:06:41;;;;;;;10.85;5.53;;;;;;;;;;5074584;28;20064;-84
2023/07/31 02:09:06;;;;;;;6.20;4.00;;;;;;;;;;5074002;28;20036;-86
2023/07/31 02:11:32;;;;;;;4.93;3.42;;;;;;;;;;5073278;28;20105;-86
2023/07/31 02:13:57;;;;;;;4.43;2.63;;;;;;;;;;5073387;28;20036;-88
2023/07/31 02:16:22;;;;;;;5.25;3.70;;;;;;;;;;5072828;28;20066;-85
2023/07/31 02:18:48;;;;;;;5.70;3.53;;;;;;;;;;5071215;28;20468;-83
2023/07/31 02:21:13;;;;;;;4.30;3.28;;;;;;;;;;5072740;28;20111;-83
2023/07/31 02:23:39;;;;;;;7.35;3.58;;;;;;;;;;5074219;28;20476;-87
2023/07/31 02:26:04;;;;;;;5.82;3.95;;;;;;;;;;5070919;28;20033;-86
2023/07/31 02:28:30;;;;;;;7.53;4.25;;;;;;;;;;5075079;28;20024;-84
2023/07/31 02:30:55;;;;;;;8.88;4.70;;;;;;;;;;5075322;28;20437;-84
2023/07/31 02:33:21;;;;;;;6.22;4.30;;;;;;;;;;5074485;28;20484;-86
2023/07/31 02:35:46;;;;;;;5.90;3.30;;;;;;;;;;5075015;28;20036;-88
2023/07/31 02:38:12;;;;;;;8.27;4.93;;;;;;;;;;5078281;28;20051;-85
2023/07/31 02:40:39;;;;;;;5.88;4.30;;;;;;;;;;5076114;28;20029;-87
2023/07/31 02:43:05;;;;;;;4.40;3.25;;;;;;;;;;5072938;28;20035;-85
2023/07/31 02:45:30;;;;;;;5.47;4.35;;;;;;;;;;5079574;28;20020;-85
2023/07/31 02:47:55;;;;;;;6.00;3.58;;;;;;;;;;5072424;28;20522;-86
2023/07/31 02:50:21;;;;;;;4.85;3.58;;;;;;;;;;5071922;28;20491;-86
2023/07/31 02:52:46;;;;;;;5.43;3.65;;;;;;;;;;5072584;28;20024;-87
2023/07/31 02:55:12;;;;;;;6.80;4.07;;;;;;;;;;5072423;28;20028;-86
2023/07/31 02:57:37;;;;;;;7.50;4.22;;;;;;;;;;5073009;28;20147;-86
2023/07/31 03:00:06;;;;;;;3.60;3.03;;;;;;;;;;5070610;28;20062;-86
2023/07/31 03:02:31;;;;;;;7.57;4.70;;;;;;;;;;5069221;28;20041;-85
2023/07/31 03:04:57;;;;;;;5.70;3.33;;;;;;;;;;5070044;28;20036;-85
2023/07/31 03:07:22;;;;;;;5.10;4.35;;;;;;;;;;5070651;28;20371;-86
2023/07/31 03:09:48;;;;;;;6.72;4.38;;;;;;;;;;5071562;28;20443;-85
2023/07/31 03:12:13;;;;;;;5.10;3.63;;;;;;;;;;5069519;28;20358;-87
2023/07/31 03:14:39;;;;;;;4.30;2.83;;;;;;;;;;5070319;28;20020;-87
2023/07/31 03:17:05;;;;;;;6.82;4.53;;;;;;;;;;5071902;28;20395;-85
2023/07/31 03:19:32;;;;;;;4.47;2.30;;;;;;;;;;5066732;28;20024;-85
2023/07/31 03:22:01;;;;;;;4.22;3.22;;;;;;;;;;5066445;28;20115;-86
2023/07/31 03:24:28;;;;;;;6.68;3.22;;;;;;;;;;5068749;28;20025;-84
2023/07/31 03:26:53;;;;;;;5.47;3.97;;;;;;;;;;5067415;28;20479;-85
2023/07/31 03:29:19;;;;;;;7.85;3.78;;;;;;;;;;5066458;28;20104;-84
2023/07/31 03:31:45;;;;;;;9.48;4.15;;;;;;;;;;5065050;28;20029;-84
2023/07/31 03:34:11;;;;;;;6.85;4.35;;;;;;;;;;5067556;28;20035;-85
2023/07/31 03:36:36;;;;;;;6.22;3.80;;;;;;;;;;5068065;28;20505;-87
2023/07/31 03:39:02;;;;;;;5.47;2.95;;;;;;;;;;5067478;28;20035;-85
2023/07/31 03:41:27;;;;;;;6.25;3.63;;;;;;;;;;5066408;28;20039;-84
2023/07/31 03:43:53;;;;;;;6.57;3.97;;;;;;;;;;5066840;28;20028;-85
2023/07/31 03:46:18;;;;;;;5.00;3.33;;;;;;;;;;5066534;28;20036;-85
2023/07/31 03:48:44;;;;;;;7.78;3.90;;;;;;;;;;5066155;28;20020;-85
2023/07/31 03:51:09;;;;;;;4.78;2.88;;;;;;;;;;5065700;28;20108;-84
2023/07/31 03:53:35;;;;;;;4.40;2.97;;;;;;;;;;5066455;28;20044;-86
2023/07/31 03:56:00;;;;;;;4.18;2.78;;;;;;;;;;5069190;28;20031;-84
2023/07/31 03:58:26;;;;;;;7.45;3.58;;;;;;;;;;5062523;28;20078;-86
2023/07/31 04:00:51;;;;;;;4.93;3.55;;;;;;;;;;5066329;28;20107;-84
2023/07/31 04:03:17;;;;;;;2.67;2.28;;;;;;;;;;5064668;28;20377;-84
2023/07/31 04:05:42;;;;;;;5.90;3.00;;;;;;;;;;5067348;28;20093;-88
2023/07/31 04:08:07;;;;;;;4.72;2.60;;;;;;;;;;5066704;28;20032;-86
2023/07/31 04:10:33;;;;;;;4.85;3.15;;;;;;;;;;5067676;28;20104;-86
2023/07/31 04:13:00;;;;;;;5.15;3.75;;;;;;;;;;5066766;28;20036;-86
2023/07/31 04:15:26;;;;;;;8.25;3.95;;;;;;;;;;5067899;28;20020;-85
2023/07/31 04:17:51;;;;;;;4.15;2.58;;;;;;;;;;5072316;28;20075;-85
2023/07/31 04:20:17;;;;;;;6.38;4.28;;;;;;;;;;5069598;28;20131;-85
2023/07/31 04:22:42;;;;;;;7.78;4.47;;;;;;;;;;5069292;28;20055;-85
2023/07/31 04:25:08;;;;;;;4.45;3.00;;;;;;;;;;5071346;28;20036;-84
2023/07/31 04:27:34;;;;;;;6.43;3.40;;;;;;;;;;5069163;28;20094;-88
2023/07/31 04:29:59;;;;;;;5.53;3.55;;;;;;;;;;5071654;28;20020;-86
2023/07/31 04:32:24;;;;;;;3.58;2.35;;;;;;;;;;5071103;28;20403;-86
2023/07/31 04:34:50;;;;;;;5.22;3.53;;;;;;;;;;5070125;28;20024;-86
2023/07/31 04:37:15;;;;;;;6.35;3.75;;;;;;;;;;5070938;28;20039;-87
2023/07/31 04:39:41;;;;;;;5.38;3.03;;;;;;;;;;5072182;28;20032;-85
2023/07/31 04:42:06;;;;;;;3.70;2.47;;;;;;;;;;5073297;28;20024;-85
2023/07/31 04:44:32;;;;;;;6.30;2.70;;;;;;;;;;5074447;28;20373;-85
2023/07/31 04:46:57;;;;;;;4.53;3.38;;;;;;;;;;5077155;28;20024;-84
2023/07/31 04:49:23;;;;;;;6.32;3.05;;;;;;;;;;5077890;28;20366;-86
2023/07/31 04:51:49;;;;;;;5.88;3.65;;;;;;;;;;5073836;28;20016;-86
2023/07/31 04:54:15;;;;;;;3.47;2.42;;;;;;;;;;5073299;28;20078;-85
2023/07/31 04:56:41;;;;;;;3.22;2.38;;;;;;;;;;5075467;28;20048;-84
2023/07/31 04:59:07;;;;;;;3.72;2.47;;;;;;;;;;5072369;28;20025;-84
2023/07/31 05:01:34;;;;;;;3.05;2.35;;;;;;;;;;5074227;28;20024;-85
2023/07/31 05:04:00;;;;;;;5.80;2.85;;;;;;;;;;5073620;28;20040;-84
2023/07/31 05:06:25;;;;;;;2.15;1.58;;;;;;;;;;5073914;28;20047;-84
2023/07/31 05:08:50;;;;;;;4.07;3.00;;;;;;;;;;5072366;28;20367;-83
2023/07/31 05:11:16;;;;;;;4.15;3.53;;;;;;;;;;5072806;28;20096;-83
2023/07/31 05:13:42;;;;;;;3.85;2.80;;;;;;;;;;5072567;28;20476;-85
2023/07/31 05:16:07;;;;;;;2.75;1.38;;;;;;;;;;5071160;28;20063;-85
2023/07/31 05:18:32;;;;;;;5.13;2.88;;;;;;;;;;5073430;28;20030;-83
2023/07/31 05:20:58;;;;;;;3.63;2.28;;;;;;;;;;5073327;28;20040;-86
2023/07/31 05:23:23;;;;;;;4.22;2.05;;;;;;;;;;5072852;28;20027;-85
2023/07/31 05:25:49;;;;;;;2.83;1.77;;;;;;;;;;5074195;28;20028;-85
2023/07/31 05:28:14;;;;;;;2.17;1.75;;;;;;;;;;5071217;28;20085;-86
2023/07/31 05:30:39;;;;;;;2.88;1.88;;;;;;;;;;5072791;28;20021;-86
2023/07/31 05:33:05;;;;;;;2.78;2.05;;;;;;;;;;5073973;28;20028;-87
2023/07/31 05:35:30;;;;;;;2.75;1.88;;;;;;;;;;5072013;28;20029;-85
2023/07/31 05:37:56;;;;;;;1.58;1.40;;;;;;;;;;5073363;28;20025;-84
2023/07/31 05:40:21;;;;;;;1.02;0.93;;;;;;;;;;5072977;28;20025;-85
2023/07/31 05:42:47;;;;;;;2.20;1.98;;;;;;;;;;5071425;28;20035;-84
2023/07/31 05:45:13;;;;;;;2.45;1.73;;;;;;;;;;5073055;28;20055;-85
2023/07/31 05:47:39;;;;;;;2.35;1.58;;;;;;;;;;5073538;28;21221;-82
2023/07/31 05:50:07;;;;;;;2.30;1.63;;;;;;;;;;5072671;28;20032;-85
2023/07/31 05:52:32;;;;;;;2.67;2.03;;;;;;;;;;5073112;28;20031;-83
2023/07/31 05:54:57;;;;;;;2.90;1.95;;;;;;;;;;5072639;28;20028;-84
2023/07/31 05:57:23;;;;;;;1.73;1.20;;;;;;;;;;5072579;28;20032;-83
2023/07/31 05:59:48;;;;;;;4.45;1.70;;;;;;;;;;5072199;28;20034;-84
2023/07/31 06:02:14;;;;;;;3.28;1.63;;;;;;;;;;5069120;28;20020;-82
2023/07/31 06:04:40;;;;;;;1.42;0.95;;;;;;;;;;5073231;28;20051;-84
2023/07/31 06:07:06;;;;;;;1.85;1.15;;;;;;;;;;5071448;28;20473;-83
2023/07/31 06:09:31;;;;;;;3.13;1.75;;;;;;;;;;5072470;28;20035;-87
2023/07/31 06:11:57;;;;;;;3.22;1.95;;;;;;;;;;5072385;28;20150;-82
2023/07/31 06:14:22;;;;;;;2.53;1.48;;;;;;;;;;5070806;28;20025;-83
2023/07/31 06:16:48;;;;;;;2.63;1.58;;;;;;;;;;5068822;28;20043;-83
2023/07/31 06:19:13;;;;;;;1.45;1.08;;;;;;;;;;5068860;28;20016;-87
2023/07/31 06:21:39;;;;;;;1.95;1.58;;;;;;;;;;5071516;28;20067;-85
2023/07/31 06:24:05;;;;;;;4.90;1.20;;;;;;;;;;5070534;28;20038;-84
2023/07/31 06:26:31;;;;;;;2.22;1.45;;;;;;;;;;5069630;28;20024;-85
2023/07/31 06:28:56;;;;;;;4.10;1.50;;;;;;;;;;5068454;28;20040;-83
2023/07/31 06:31:22;;;;;;;1.65;1.25;;;;;;;;;;5068563;28;20024;-84
2023/07/31 06:33:52;;;;;;;1.02;0.85;;;;;;;;;;5064486;28;20033;-81
2023/07/31 06:36:17;;;;;;;1.88;1.15;;;;;;;;;;5068870;28;20032;-82
2023/07/31 06:38:43;;;;;;;1.52;0.80;;;;;;;;;;5068200;28;20169;-82
2023/07/31 06:41:10;;;;;;;3.67;1.20;;;;;;;;;;5065379;28;20097;-82
2023/07/31 06:43:35;;;;;;;0.75;0.50;;;;;;;;;;5064102;28;20024;-83
2023/07/31 06:46:06;;;;;;;1.15;0.63;;;;;;;;;;5063367;28;20035;-80
2023/07/31 06:48:32;;;;;;;1.10;0.65;;;;;;;;;;5064441;28;20037;-82
2023/07/31 06:50:57;;;;;;;2.03;1.00;;;;;;;;;;5070845;28;20040;-81
2023/07/31 06:53:23;;;;;;;0.85;0.73;;;;;;;;;;5066086;28;20488;-81
2023/07/31 06:55:51;;;;;;;0.82;0.60;;;;;;;;;;5066256;28;20487;-81
2023/07/31 06:58:17;;;;;;;1.05;0.60;;;;;;;;;;5069004;28;20421;-83
2023/07/31 07:00:42;;;;;;;1.60;0.95;;;;;;;;;;5068088;28;20229;-81
2023/07/31 07:03:08;;;;;;;1.35;1.08;;;;;;;;;;5066301;28;20039;-81
2023/07/31 07:05:33;;;;;;;0.85;0.55;;;;;;;;;;5068512;28;20028;-82
2023/07/31 07:07:59;;;;;;;0.82;0.55;;;;;;;;;;5065496;28;20103;-82
2023/07/31 07:10:24;;;;;;;0.88;0.73;;;;;;;;;;5069318;28;20042;-83
2023/07/31 07:12:50;;;;;;;1.35;0.98;;;;;;;;;;5068781;28;20102;-84
2023/07/31 07:15:15;;;;;;;0.73;0.70;;;;;;;;;;5067734;28;20027;-82
2023/07/31 07:17:41;;;;;;;1.65;0.95;;;;;;;;;;5066960;28;20040;-80
2023/07/31 07:20:07;;;;;;;1.35;1.10;;;;;;;;;;5068261;28;20028;-81
2023/07/31 07:22:33;;;;;;;1.27;0.93;;;;;;;;;;5068066;28;20464;-84
2023/07/31 07:24:58;;;;;;;0.90;0.63;;;;;;;;;;5066356;28;20036;-83
2023/07/31 07:27:24;;;;;;;0.60;0.60;;;;;;;;;;5068296;28;20024;-82
2023/07/31 07:29:52;;;;;;;0.65;0.60;;;;;;;;;;5066231;28;20028;-83
2023/07/31 07:32:18;;;;;;;0.50;0.50;;;;;;;;;;5067784;28;20029;-86
2023/07/31 07:34:44;;;;;;;0.80;0.77;;;;;;;;;;5063810;28;20468;-83
2023/07/31 07:37:09;;;;;;;0.32;0.28;;;;;;;;;;5063226;28;20025;-83
2023/07/31 07:39:35;;;;;;;0.77;0.45;;;;;;;;;;5066972;28;20032;-87
2023/07/31 07:42:00;;;;;;;0.22;0.22;;;;;;;;;;5067837;28;20047;-84
2023/07/31 07:44:26;;;;;;;0.55;0.47;;;;;;;;;;5064179;28;20107;-84
2023/07/31 07:46:52;;;;;;;0.55;0.52;;;;;;;;;;5066407;28;20067;-87
2023/07/31 07:49:18;;;;;;;0.93;0.75;;;;;;;;;;5066012;28;20052;-84
2023/07/31 07:51:43;;;;;;;0.32;0.32;;;;;;;;;;5066830;28;20052;-83
2023/07/31 07:54:09;;;;;;;0.90;0.30;;;;;;;;;;5066024;28;20028;-86
2023/07/31 07:56:36;;;;;;;0.95;0.70;;;;;;;;;;5065300;28;20028;-83
2023/07/31 07:59:01;;;;;;;0.85;0.80;;;;;;;;;;5067596;28;20024;-84
2023/07/31 08:01:27;;;;;;;1.58;0.60;;;;;;;;;;5066468;28;20028;-82
2023/07/31 08:03:52;;;;;;;0.30;0.30;;;;;;;;;;5064069;28;20032;-85
2023/07/31 08:06:17;;;;;;;2.40;1.05;;;;;;;;;;5066441;28;20032;-83
2023/07/31 08:08:43;;;;;;;1.35;0.52;;;;;;;;;;5061438;28;20083;-85
2023/07/31 08:11:08;;;;;;;0.28;0.28;;;;;;;;;;5065485;28;20029;-83
2023/07/31 08:13:34;;;;;;;0.28;0.28;;;;;;;;;;5063967;28;20735;-84
2023/07/31 08:15:59;;;;;;;1.30;0.85;;;;;;;;;;5099142;28;20186;-84
2023/07/31 08:18:25;;;;;;;0.75;0.55;;;;;;;;;;5068705;28;20082;-83
2023/07/31 08:20:50;;;;;;;0.35;0.35;;;;;;;;;;5069619;28;20033;-81
2023/07/31 08:23:15;;;;;;;1.10;0.88;;;;;;;;;;5071963;28;20158;-83
2023/07/31 08:25:41;;;;;;;0.57;0.57;;;;;;;;;;5071475;28;20032;-84
2023/07/31 08:28:07;;;;;;;0.20;0.20;;;;;;;;;;5070923;28;20037;-84
2023/07/31 08:30:33;;;;;;;0.30;0.30;;;;;;;;;;5070763;28;20051;-84
2023/07/31 08:32:59;;;;;;;0.65;0.60;;;;;;;;;;5075526;28;20032;-84
2023/07/31 08:35:25;;;;;;;0.65;0.50;;;;;;;;;;5074832;28;20024;-84
2023/07/31 08:37:50;;;;;;;0.40;0.40;;;;;;;;;;5074548;28;20039;-83
2023/07/31 08:40:16;;;;;;;0.88;0.68;;;;;;;;;;5073153;28;20032;-82
2023/07/31 08:42:51;;;;;;;3.15;1.08;;;;;;;;;;5070331;28;20032;-83
2023/07/31 08:45:19;;;;;;;1.45;0.60;;;;;;;;;;5073219;28;20043;-83
2023/07/31 08:47:49;;;;;;;1.00;0.60;;;;;;;;;;5069994;28;20159;-83
2023/07/31 08:50:17;;;;;;;0.30;0.30;;;;;;;;;;5073692;28;20107;-84
2023/07/31 08:52:43;;;;;;;5.65;0.70;;;;;;;;;;5074713;28;20029;-82
2023/07/31 08:55:09;;;;;;;2.95;0.73;;;;;;;;;;5069514;28;20039;-86
2023/07/31 08:57:37;;;;;;;0.28;0.28;;;;;;;;;;5069046;28;20070;-82
2023/07/31 09:00:09;;;;;;;0.35;0.35;;;;;;;;;;5099214;28;20129;-83
2023/07/31 09:02:39;;;;;;;0.73;0.50;;;;;;;;;;5067866;28;20052;-83
2023/07/31 09:05:07;;;;;;;0.32;0.30;;;;;;;;;;5065512;28;20036;-82
2023/07/31 09:07:34;;;;;;;1.17;0.80;;;;;;;;;;5067785;28;20365;-82
2023/07/31 09:10:00;;;;;;;0.73;0.73;;;;;;;;;;5066614;28;20540;-81
2023/07/31 09:12:25;;;;;;;0.60;0.55;;;;;;;;;;5069982;28;20119;-82
2023/07/31 09:14:51;;;;;;;0.38;0.32;;;;;;;;;;5067430;28;20028;-82
2023/07/31 09:17:31;;;;;;;0.45;0.45;;;;;;;;;;5068908;28;20074;-82
2023/07/31 09:19:58;;;;;;;0.35;0.35;;;;;;;;;;5066369;28;20039;-83
2023/07/31 09:22:34;;;;;;;0.68;0.60;;;;;;;;;;5064963;28;20039;-85
2023/07/31 09:25:22;;;;;;;0.30;0.28;;;;;;;;;;5067071;28;20082;-82
2023/07/31 09:28:09;;;;;;;0.63;0.45;;;;;;;;;;5061524;28;20051;-81
2023/07/31 09:30:51;;;;;;;1.00;0.57;;;;;;;;;;5070264;28;20017;-83
2023/07/31 09:33:18;;;;;;;4.03;0.52;;;;;;;;;;5068531;28;20032;-79
2023/07/31 09:35:43;;;;;;;0.63;0.55;;;;;;;;;;5073464;28;20028;-81
2023/07/31 09:38:11;;;;;;;0.65;0.63;;;;;;;;;;5073751;28;20021;-83
2023/07/31 09:40:39;;;;;;;1.13;0.85;;;;;;;;;;5074060;28;20034;-81
2023/07/31 09:43:10;;;;;;;0.47;0.40;;;;;;;;;;5073427;28;20028;-83
2023/07/31 09:45:40;;;;;;;0.75;0.65;;;;;;;;;;5071632;28;20585;-83
2023/07/31 09:48:18;;;;;;;0.68;0.43;;;;;;;;;;5071694;28;20033;-83
2023/07/31 09:50:46;;;;;;;0.30;0.30;;;;;;;;;;5070001;28;20485;-81
2023/07/31 09:53:12;;;;;;;1.15;0.60;;;;;;;;;;5072103;28;20025;-82
2023/07/31 09:55:38;;;;;;;0.30;0.30;;;;;;;;;;5073950;28;20027;-84
2023/07/31 09:58:06;;;;;;;1.75;1.00;;;;;;;;;;5071671;28;20106;-82
2023/07/31 10:00:32;;;;;;;2.50;0.98;;;;;;;;;;5072577;28;20024;-83
2023/07/31 10:03:03;;;;;;;0.55;0.50;;;;;;;;;;5071303;28;20040;-85
2023/07/31 10:05:36;;;;;;;0.57;0.50;;;;;;;;;;5072592;28;20090;-83
2023/07/31 10:08:03;;;;;;;1.50;0.57;;;;;;;;;;5069276;28;20040;-82
2023/07/31 10:10:28;;;;;;;0.38;0.25;;;;;;;;;;5073101;28;20411;-83
2023/07/31 10:12:56;;;;;;;1.27;0.77;;;;;;;;;;5072657;28;20028;-82
2023/07/31 10:15:22;;;;;;;1.48;0.57;;;;;;;;;;5071232;28;20047;-83
2023/07/31 10:17:48;;;;;;;0.80;0.57;;;;;;;;;;5068045;28;20091;-85
2023/07/31 10:20:18;;;;;;;0.43;0.40;;;;;;;;;;5072042;28;20039;-83
2023/07/31 10:22:47;;;;;;;0.77;0.52;;;;;;;;;;5071460;28;20028;-86
2023/07/31 10:25:15;;;;;;;0.98;0.85;;;;;;;;;;5069377;28;20024;-83
2023/07/31 10:27:41;;;;;;;0.30;0.30;;;;;;;;;;5070617;28;20464;-82
2023/07/31 10:30:13;;;;;;;0.43;0.43;;;;;;;;;;5072175;28;20099;-82
2023/07/31 10:32:41;;;;;;;0.85;0.68;;;;;;;;;;5071012;28;20031;-84
2023/07/31 10:35:09;;;;;;;2.05;0.88;;;;;;;;;;5069989;28;20032;-83
2023/07/31 10:37:44;;;;;;;0.55;0.52;;;;;;;;;;5072395;28;20032;-86
2023/07/31 10:40:14;;;;;;;0.45;0.38;;;;;;;;;;5070891;28;20024;-85
2023/07/31 10:42:51;;;;;;;0.10;0.10;;;;;;;;;;5070612;28;20032;-82
2023/07/31 10:45:33;;;;;;;0.85;0.73;;;;;;;;;;5069748;28;20090;-82
2023/07/31 10:48:03;;;;;;;0.55;0.35;;;;;;;;;;5071577;28;20090;-81
2023/07/31 10:50:32;;;;;;;0.60;0.40;;;;;;;;;;5067312;28;20120;-82
2023/07/31 10:53:00;;;;;;;0.93;0.45;;;;;;;;;;5070967;28;20127;-83
2023/07/31 10:55:40;;;;;;;8.00;0.63;;;;;;;;;;5070988;28;20047;-84
2023/07/31 10:58:06;;;;;;;;;;;;;;;;;;5068813;28;20051;-83
2023/07/31 11:00:32;;;;;;;0.77;0.75;;;;;;;;;;5069856;28;20283;-84
2023/07/31 11:02:59;;;;;;;0.77;0.40;;;;;;;;;;5067457;28;20029;-84
2023/07/31 11:05:59;;;;;;;0.20;0.20;;;;;;;;;;5069485;28;20043;-82
2023/07/31 11:08:30;;;;;;;0.38;0.32;;;;;;;;;;5071891;28;20431;-84
2023/07/31 11:11:01;;;;;;;2.17;0.90;;;;;;;;;;5071446;28;20051;-82
2023/07/31 11:13:30;;;;;;;0.43;0.30;;;;;;;;;;5071647;28;20028;-83
2023/07/31 11:15:55;;;;;;;1.00;0.68;;;;;;;;;;5069213;28;20044;-83
2023/07/31 11:18:21;;;;;;;1.08;0.40;;;;;;;;;;5071499;28;20033;-85
2023/07/31 11:20:46;;;;;;;0.57;0.43;;;;;;;;;;5070552;28;20042;-85
2023/07/31 11:23:13;;;;;;;0.40;0.32;;;;;;;;;;5069787;28;20144;-84
2023/07/31 11:25:42;;;;;;;0.63;0.50;;;;;;;;;;5068898;28;20463;-82
2023/07/31 11:28:15;;;;;;;0.30;0.30;;;;;;;;;;5070392;28;20078;-82
2023/07/31 11:30:42;;;;;;;0.63;0.40;;;;;;;;;;5070889;28;20040;-85
2023/07/31 11:33:10;;;;;;;0.57;0.50;;;;;;;;;;5073659;28;20070;-85
2023/07/31 11:35:44;;;;;;;0.43;0.43;;;;;;;;;;5070151;28;20407;-83
2023/07/31 11:38:11;;;;;;;0.22;0.15;;;;;;;;;;5069571;28;20073;-80
2023/07/31 11:40:43;;;;;;;1.08;0.55;;;;;;;;;;5069321;28;20032;-83
2023/07/31 11:43:11;;;;;;;0.57;0.30;;;;;;;;;;5070139;28;20036;-81
2023/07/31 11:45:37;;;;;;;0.50;0.43;;;;;;;;;;5067032;28;20387;-80
2023/07/31 11:48:03;;;;;;;0.63;0.40;;;;;;;;;;5067726;28;20024;-83
2023/07/31 11:50:33;;;;;;;0.85;0.82;;;;;;;;;;5069321;28;20538;-80
2023/07/31 11:53:04;;;;;;;0.77;0.57;;;;;;;;;;5070753;28;20055;-79
2023/07/31 11:55:30;;;;;;;0.82;0.57;;;;;;;;;;5070381;28;20035;-80
2023/07/31 11:57:58;;;;;;;1.08;0.50;;;;;;;;;;5071017;28;20380;-80
2023/07/31 12:00:25;;;;;;;3.45;1.35;;;;;;;;;;5070087;28;20420;-79
2023/07/31 12:02:51;;;;;;;0.50;0.50;;;;;;;;;;5070326;28;20119;-83
2023/07/31 12:05:17;;;;;;;0.15;0.15;;;;;;;;;;5070235;28;20484;-82
2023/07/31 12:07:51;;;;;;;0.50;0.43;;;;;;;;;;5070965;28;20021;-82
2023/07/31 12:10:30;;;;;;;0.28;0.28;;;;;;;;;;5068228;28;20174;-82
2023/07/31 12:13:03;;;;;;;;;;;;;;;;;;5067254;28;20070;-83
2023/07/31 12:15:47;;;;;;;0.65;0.57;;;;;;;;;;5068768;28;19920;-83
2023/07/31 12:18:14;;;;;;;1.20;0.63;;;;;;;;;;5069386;28;20048;-81
2023/07/31 12:20:45;;;;;;;0.70;0.68;;;;;;;;;;5068317;28;20521;-80
2023/07/31 12:23:18;;;;;;;0.70;0.47;;;;;;;;;;5069884;28;20020;-82
2023/07/31 12:25:44;;;;;;;0.80;0.65;;;;;;;;;;5067854;28;20078;-81
2023/07/31 12:28:12;;;;;;;1.75;0.77;;;;;;;;;;5066566;28;20074;-81
2023/07/31 12:30:40;;;;;;;2.30;1.02;;;;;;;;;;5069105;28;20024;-82
2023/07/31 12:33:15;;;;;;;3.85;0.80;;;;;;;;;;5069581;28;20047;-80
2023/07/31 12:35:46;;;;;;;0.65;0.47;;;;;;;;;;5067084;28;20036;-81
2023/07/31 12:38:13;;;;;;;1.20;0.90;;;;;;;;;;5068636;28;20477;-81
2023/07/31 12:40:40;;;;;;;1.75;1.30;;;;;;;;;;5069252;28;20025;-83
2023/07/31 12:43:06;;;;;;;1.92;1.25;;;;;;;;;;5068685;28;20058;-82
2023/07/31 12:45:32;;;;;;;1.02;0.80;;;;;;;;;;5068285;28;20418;-81
2023/07/31 12:48:01;;;;;;;1.85;1.15;;;;;;;;;;5069781;28;20114;-82
2023/07/31 12:50:27;;;;;;;0.98;0.88;;;;;;;;;;5068836;28;20032;-81
2023/07/31 12:52:56;;;;;;;2.28;1.23;;;;;;;;;;5066676;28;20043;-82
2023/07/31 12:55:22;;;;;;;;;;;;;;;;;;5067181;28;20056;-82
2023/07/31 12:57:48;;;;;;;0.70;0.55;;;;;;;;;;5068434;28;19956;-81
2023/07/31 13:00:14;;;;;;;1.48;1.27;;;;;;;;;;5069269;28;20601;-80
2023/07/31 13:02:39;;;;;;;1.48;0.90;;;;;;;;;;5068250;28;20021;-81
2023/07/31 13:05:05;;;;;;;2.78;1.02;;;;;;;;;;5068734;28;20577;-81
2023/07/31 13:07:31;;;;;;;1.13;0.90;;;;;;;;;;5073029;28;20081;-82
2023/07/31 13:09:56;;;;;;;2.63;1.50;;;;;;;;;;5073101;28;20032;-80
2023/07/31 13:12:22;;;;;;;1.85;0.93;;;;;;;;;;5071108;28;20094;-81
2023/07/31 13:14:47;;;;;;;0.77;0.52;;;;;;;;;;5072717;28;20066;-81
2023/07/31 13:17:13;;;;;;;1.95;1.10;;;;;;;;;;5073505;28;20036;-83
2023/07/31 13:19:38;;;;;;;1.27;1.05;;;;;;;;;;5068324;28;20024;-82
2023/07/31 13:22:03;;;;;;;1.55;0.90;;;;;;;;;;5067287;28;20465;-81
2023/07/31 13:24:29;;;;;;;1.55;1.25;;;;;;;;;;5068692;28;20024;-79
2023/07/31 13:26:55;;;;;;;1.17;0.93;;;;;;;;;;5072312;28;20476;-80
2023/07/31 13:29:21;;;;;;;1.17;1.02;;;;;;;;;;5069108;28;20032;-81
2023/07/31 13:31:47;;;;;;;0.98;0.90;;;;;;;;;;5065777;28;20148;-80
2023/07/31 13:34:13;;;;;;;2.03;1.08;;;;;;;;;;5067546;28;20099;-79
2023/07/31 13:36:38;;;;;;;1.17;1.00;;;;;;;;;;5066707;28;20028;-78
2023/07/31 13:39:03;;;;;;;1.95;1.10;;;;;;;;;;5067112;28;20025;-79
2023/07/31 13:41:29;;;;;;;2.42;1.00;;;;;;;;;;5065633;28;20079;-79
2023/07/31 13:43:54;;;;;;;0.98;0.65;;;;;;;;;;5065739;28;20029;-79
2023/07/31 13:46:20;;;;;;;0.95;0.63;;;;;;;;;;5067556;28;20040;-77
2023/07/31 13:48:45;;;;;;;0.35;0.35;;;;;;;;;;5066291;28;20040;-77
2023/07/31 13:51:10;;;;;;;0.90;0.77;;;;;;;;;;5064686;28;20449;-78
2023/07/31 13:53:36;;;;;;;1.20;0.88;;;;;;;;;;5066373;28;20082;-78
2023/07/31 13:56:01;;;;;;;0.65;0.60;;;;;;;;;;5065989;28;20051;-78
2023/07/31 13:58:27;;;;;;;1.73;1.20;;;;;;;;;;5066793;28;20796;-77
2023/07/31 14:00:52;;;;;;;1.00;0.70;;;;;;;;;;5069272;28;20031;-79
2023/07/31 14:03:18;;;;;;;1.33;0.70;;;;;;;;;;5066691;28;20024;-79
2023/07/31 14:05:43;;;;;;;1.30;0.95;;;;;;;;;;5071587;28;20025;-78
2023/07/31 14:08:08;;;;;;;1.73;1.17;;;;;;;;;;5068947;28;20473;-78
2023/07/31 14:10:34;;;;;;;2.55;0.95;;;;;;;;;;5067861;28;20361;-78
2023/07/31 14:12:59;;;;;;;1.52;1.20;;;;;;;;;;5070203;28;20530;-79
2023/07/31 14:15:25;;;;;;;1.08;0.82;;;;;;;;;;5066394;28;20074;-79
2023/07/31 14:17:50;;;;;;;1.08;0.70;;;;;;;;;;5068759;28;20086;-78
2023/07/31 14:20:16;;;;;;;2.08;0.73;;;;;;;;;;5065448;28;20043;-77
2023/07/31 14:22:41;;;;;;;1.55;0.80;;;;;;;;;;5069601;28;20492;-80
2023/07/31 14:25:10;;;;;;;0.98;0.60;;;;;;;;;;5066621;28;20056;-80
2023/07/31 14:27:35;;;;;;;1.57;1.10;;;;;;;;;;5063945;28;20024;-78
2023/07/31 14:30:00;;;;;;;0.90;0.63;;;;;;;;;;5063631;28;20177;-79
2023/07/31 14:32:26;;;;;;;1.52;0.75;;;;;;;;;;5066185;28;20607;-78
2023/07/31 14:34:51;;;;;;;0.80;0.57;;;;;;;;;;5064386;28;20059;-78
2023/07/31 14:37:17;;;;;;;1.10;0.75;;;;;;;;;;5063363;28;20028;-77
2023/07/31 14:39:43;;;;;;;1.50;0.95;;;;;;;;;;5065227;28;20107;-78
2023/07/31 14:42:09;;;;;;;0.82;0.60;;;;;;;;;;5063870;28;20116;-79